Time;durP1;ratioP1;P1;durP2;ratioP2;P2;SDS_P1;SDS_P2;PMS_P1;PMS_P2;Temp;Humidity;BMP_temperature;BMP_pressure;BME280_temperature;BME280_humidity;BME280_pressure;Samples;Min_cycle;Max_cycle;Signal;HPM_P1;HPM_P2
2024/01/02 00:01:08;;;;;;;9.20;2.77;;;4.60;1.00;;;;;;5052898;28;20206;-89
2024/01/02 00:03:35;;;;;;;6.50;2.37;;;4.40;1.00;;;;;;5052001;28;20700;-88
2024/01/02 00:06:02;;;;;;;7.97;2.23;;;4.30;99.90;;;;;;5053913;28;20608;-88
2024/01/02 00:08:29;;;;;;;11.43;2.60;;;4.20;1.00;;;;;;5052136;28;20300;-88
2024/01/02 00:10:56;;;;;;;9.07;2.73;;;4.20;12.60;;;;;;5055602;28;20211;-88
2024/01/02 00:13:25;;;;;;;10.47;2.70;;;4.10;1.00;;;;;;5043978;28;20277;-88
2024/01/02 00:15:52;;;;;;;14.60;2.83;;;5.10;1.00;;;;;;5052693;28;20203;-88
2024/01/02 00:18:18;;;;;;;7.53;2.20;;;4.70;99.90;;;;;;5044877;28;20653;-87
2024/01/02 00:20:45;;;;;;;12.90;3.50;;;4.00;1.00;;;;;;5053251;28;20201;-88
2024/01/02 00:23:12;;;;;;;5.57;2.40;;;4.30;1.00;;;;;;5053351;28;20236;-88
2024/01/02 00:25:39;;;;;;;7.87;2.33;;;5.30;99.90;;;;;;5048016;28;20223;-87
2024/01/02 00:28:06;;;;;;;11.23;2.60;;;4.40;1.00;;;;;;5046201;28;20234;-88
2024/01/02 00:30:34;;;;;;;10.93;2.87;;;4.20;1.00;;;;;;5046988;28;20214;-88
2024/01/02 00:33:03;;;;;;;10.10;2.63;;;3.90;1.00;;;;;;5048008;28;20211;-88
2024/01/02 00:35:30;;;;;;;10.40;2.60;;;4.10;1.00;;;;;;5047351;28;20211;-87
2024/01/02 00:37:57;;;;;;;15.00;2.87;;;4.50;99.90;;;;;;5047094;28;20211;-88
2024/01/02 00:40:24;;;;;;;10.40;2.20;;;4.30;1.00;;;;;;5054415;28;20661;-88
2024/01/02 00:42:50;;;;;;;7.37;2.27;;;4.30;1.00;;;;;;5044977;28;20238;-88
2024/01/02 00:45:17;;;;;;;10.30;2.30;;;4.30;1.00;;;;;;5042183;28;20218;-88
2024/01/02 00:47:45;;;;;;;14.23;2.40;;;4.20;1.00;;;;;;5053436;28;20205;-87
2024/01/02 00:50:12;;;;;;;8.43;1.90;;;4.40;1.00;;;;;;5043981;28;20568;-88
2024/01/02 00:52:39;;;;;;;9.00;2.27;;;4.20;1.00;;;;;;5053839;28;20715;-87
2024/01/02 00:55:08;;;;;;;12.90;2.63;;;4.60;1.00;;;;;;5053054;28;20207;-88
2024/01/02 00:57:34;;;;;;;12.73;2.50;;;4.30;1.00;;;;;;5050735;28;20199;-88
2024/01/02 01:00:03;;;;;;;13.17;3.10;;;4.30;1.00;;;;;;5051254;28;20203;-88
2024/01/02 01:02:30;;;;;;;8.73;3.03;;;4.30;1.00;;;;;;5046980;28;20211;-88
2024/01/02 01:04:58;;;;;;;10.23;2.43;;;4.60;1.00;;;;;;5045158;28;20195;-88
2024/01/02 01:07:25;;;;;;;12.53;2.50;;;4.50;1.00;;;;;;5049394;28;20210;-88
2024/01/02 01:09:52;;;;;;;9.37;2.17;;;4.70;1.00;;;;;;5043066;28;20769;-88
2024/01/02 01:12:19;;;;;;;15.77;3.10;;;4.50;1.00;;;;;;5053095;28;20664;-89
2024/01/02 01:14:46;;;;;;;7.97;2.50;;;4.60;1.00;;;;;;5053918;28;20217;-88
2024/01/02 01:17:13;;;;;;;7.27;2.10;;;4.50;1.00;;;;;;5052844;28;20207;-88
2024/01/02 01:19:41;;;;;;;13.33;2.97;;;4.40;1.00;;;;;;5045214;28;20203;-88
2024/01/02 01:22:09;;;;;;;10.80;4.00;;;4.40;1.00;;;;;;5046286;28;20580;-88
2024/01/02 01:24:35;;;;;;;14.63;2.80;;;4.60;1.00;;;;;;5050264;28;20654;-89
2024/01/02 01:27:02;;;;;;;9.53;2.37;;;4.70;1.00;;;;;;5048816;28;20688;-88
2024/01/02 01:29:29;;;;;;;13.03;2.80;;;4.60;1.00;;;;;;5042979;28;20217;-88
2024/01/02 01:31:55;;;;;;;11.67;2.30;;;5.40;1.00;;;;;;5046309;28;20620;-88
2024/01/02 01:34:22;;;;;;;8.77;2.50;;;4.50;1.00;;;;;;5047306;28;20229;-88
2024/01/02 01:36:49;;;;;;;7.37;2.40;;;4.60;1.00;;;;;;5052602;28;20299;-88
2024/01/02 01:39:17;;;;;;;12.47;2.47;;;4.60;1.00;;;;;;5054203;28;20215;-88
2024/01/02 01:41:44;;;;;;;6.80;2.63;;;4.60;1.00;;;;;;5052624;28;20213;-88
2024/01/02 01:44:11;;;;;;;12.67;2.63;;;4.70;1.00;;;;;;5053207;28;20223;-88
2024/01/02 01:46:40;;;;;;;9.83;2.50;;;4.70;1.00;;;;;;5053364;28;20222;-88
2024/01/02 01:49:09;;;;;;;9.87;2.53;;;4.90;1.00;;;;;;5054655;28;20209;-88
2024/01/02 01:51:38;;;;;;;10.50;2.20;;;4.90;1.00;;;;;;5054076;28;20215;-89
2024/01/02 01:54:05;;;;;;;7.80;1.90;;;5.20;1.00;;;;;;5050717;28;20716;-88
2024/01/02 01:56:35;;;;;;;9.20;2.20;;;5.10;1.00;;;;;;5048725;28;20207;-88
2024/01/02 01:59:04;;;;;;;9.30;2.10;;;4.80;1.00;;;;;;5052852;28;20621;-88
2024/01/02 02:01:32;;;;;;;11.07;2.10;;;5.40;99.90;;;;;;5053119;28;20206;-88
2024/01/02 02:04:00;;;;;;;16.30;2.50;;;5.50;99.90;;;;;;5038010;28;20668;-88
2024/01/02 02:06:27;;;;;;;10.33;2.53;;;5.40;99.90;;;;;;5048866;28;20255;-89
2024/01/02 02:08:54;;;;;;;9.40;2.37;;;5.20;99.90;;;;;;5048682;28;20222;-88
2024/01/02 02:11:22;;;;;;;11.20;2.23;;;5.30;99.90;;;;;;5045367;28;20297;-88
2024/01/02 02:13:50;;;;;;;11.33;2.47;;;5.40;99.90;;;;;;5052067;28;20314;-88
2024/01/02 02:16:17;;;;;;;11.20;3.10;;;5.10;99.90;;;;;;5052816;28;20211;-87
2024/01/02 02:18:44;;;;;;;10.13;2.53;;;5.00;99.90;;;;;;5053780;28;20289;-88
2024/01/02 02:21:11;;;;;;;9.50;2.23;;;5.40;99.90;;;;;;5053006;28;20202;-87
2024/01/02 02:23:39;;;;;;;11.90;2.80;;;5.10;99.90;;;;;;5049019;28;20226;-87
2024/01/02 02:26:06;;;;;;;15.10;2.60;;;5.10;1.00;;;;;;5051525;28;20211;-87
2024/01/02 02:28:33;;;;;;;9.93;3.10;;;5.30;99.90;;;;;;5051941;28;20214;-87
2024/01/02 02:30:59;;;;;;;9.70;2.10;;;5.20;99.90;;;;;;5049798;28;20225;-87
2024/01/02 02:33:26;;;;;;;8.13;2.37;;;5.20;99.90;;;;;;5051977;28;20227;-87
2024/01/02 02:35:53;;;;;;;10.27;2.53;;;5.50;1.00;;;;;;5051735;28;20217;-87
2024/01/02 02:38:20;;;;;;;9.67;2.20;;;5.40;1.00;;;;;;5053037;28;20213;-88
2024/01/02 02:40:48;;;;;;;13.93;2.53;;;5.50;1.00;;;;;;5046701;28;20205;-88
2024/01/02 02:43:15;;;;;;;12.10;2.10;;;6.00;1.00;;;;;;5044266;28;20219;-88
2024/01/02 02:45:42;;;;;;;11.20;1.97;;;5.70;1.00;;;;;;5051990;28;20226;-87
2024/01/02 02:48:09;;;;;;;5.63;1.90;;;5.70;1.00;;;;;;5052422;28;20253;-87
2024/01/02 02:50:36;;;;;;;7.83;1.70;;;5.90;1.00;;;;;;5046980;28;20212;-88
2024/01/02 02:53:03;;;;;;;7.47;2.53;;;5.60;1.00;;;;;;5052004;28;20233;-88
2024/01/02 02:55:29;;;;;;;10.57;1.90;;;5.50;1.00;;;;;;5052594;28;20206;-88
2024/01/02 02:57:58;;;;;;;5.33;1.63;;;5.50;1.00;;;;;;5046076;28;20198;-87
2024/01/02 03:00:25;;;;;;;5.67;1.60;;;5.80;1.00;;;;;;5052192;28;20267;-88
2024/01/02 03:02:52;;;;;;;9.43;2.23;;;5.80;1.00;;;;;;5051716;28;20221;-87
2024/01/02 03:05:18;;;;;;;6.80;1.60;;;5.80;1.00;;;;;;5052483;28;20226;-89
2024/01/02 03:07:45;;;;;;;6.47;1.73;;;6.00;1.00;;;;;;5045523;28;20278;-88
2024/01/02 03:10:14;;;;;;;6.57;1.90;;;6.10;1.00;;;;;;5050779;28;20206;-87
2024/01/02 03:12:41;;;;;;;6.37;1.67;;;6.40;1.00;;;;;;5049746;28;20231;-87
2024/01/02 03:15:10;;;;;;;7.37;1.77;;;5.70;99.90;;;;;;5046995;28;20217;-88
2024/01/02 03:17:37;;;;;;;3.90;2.00;;;6.00;1.00;;;;;;5044340;28;20203;-89
2024/01/02 03:20:05;;;;;;;7.83;1.67;;;6.10;99.90;;;;;;5045126;28;20631;-87
2024/01/02 03:22:32;;;;;;;6.63;1.63;;;6.10;1.00;;;;;;5047063;28;20225;-88
2024/01/02 03:24:59;;;;;;;8.90;2.47;;;6.20;99.90;;;;;;5047312;28;20206;-88
2024/01/02 03:27:26;;;;;;;6.33;1.83;;;6.30;99.90;;;;;;5049393;28;20226;-87
2024/01/02 03:29:53;;;;;;;10.40;2.23;;;6.80;1.00;;;;;;5051180;28;20203;-87
2024/01/02 03:32:21;;;;;;;5.73;1.90;;;6.70;1.00;;;;;;5043688;28;20210;-89
2024/01/02 03:34:50;;;;;;;7.83;2.10;;;6.50;1.00;;;;;;5050317;28;20201;-89
2024/01/02 03:37:17;;;;;;;7.77;2.07;;;6.50;1.00;;;;;;5044960;28;20203;-89
2024/01/02 03:39:44;;;;;;;9.20;2.20;;;6.60;1.00;;;;;;5047633;28;20679;-89
2024/01/02 03:42:11;;;;;;;5.90;2.00;;;6.70;1.00;;;;;;5050956;28;20678;-88
2024/01/02 03:44:37;;;;;;;10.27;2.43;;;6.60;1.00;;;;;;5047183;28;20198;-87
2024/01/02 03:47:05;;;;;;;8.73;1.90;;;6.50;1.00;;;;;;5046600;28;20234;-87
2024/01/02 03:49:44;;;;;;;5.93;2.00;;;6.60;1.00;;;;;;5048429;28;20573;-89
2024/01/02 03:52:11;;;;;;;6.83;2.17;;;6.70;1.00;;;;;;5048931;28;20290;-90
2024/01/02 03:54:38;;;;;;;6.50;2.20;;;6.80;1.00;;;;;;5042109;28;20345;-89
2024/01/02 03:57:05;;;;;;;5.20;2.00;;;6.50;1.00;;;;;;5048860;28;20870;-91
2024/01/02 03:59:32;;;;;;;6.07;1.67;;;6.60;1.00;;;;;;5044927;28;20291;-89
2024/01/02 04:01:59;;;;;;;5.13;2.03;;;6.70;1.00;;;;;;5046213;28;20195;-90
2024/01/02 04:04:26;;;;;;;5.67;2.10;;;6.60;1.00;;;;;;5047028;28;20228;-90
2024/01/02 04:06:54;;;;;;;7.80;2.10;;;6.60;1.00;;;;;;5042194;28;20231;-89
2024/01/02 04:09:21;;;;;;;6.70;1.97;;;6.70;99.90;;;;;;5044119;28;20199;-90
2024/01/02 04:11:49;;;;;;;5.43;1.80;;;6.60;99.90;;;;;;5043739;28;20723;-88
2024/01/02 04:14:16;;;;;;;8.70;1.90;;;6.60;99.90;;;;;;5044998;28;20601;-87
2024/01/02 04:16:43;;;;;;;5.93;1.80;;;6.50;1.00;;;;;;5042037;28;20555;-89
2024/01/02 04:19:10;;;;;;;5.13;1.60;;;6.50;99.90;;;;;;5043547;28;20245;-89
2024/01/02 04:21:36;;;;;;;5.93;1.83;;;6.50;99.90;;;;;;5042936;28;20226;-87
2024/01/02 04:24:05;;;;;;;3.97;1.73;;;6.50;1.00;;;;;;5045184;28;20597;-88
2024/01/02 04:26:32;;;;;;;3.43;1.77;;;6.40;32.80;;;;;;5047020;28;20596;-88
2024/01/02 04:28:59;;;;;;;5.27;1.83;;;6.40;1.00;;;;;;5042953;28;20195;-87
2024/01/02 04:31:26;;;;;;;5.57;2.10;;;6.40;1.00;;;;;;5048707;28;20206;-86
2024/01/02 04:33:53;;;;;;;9.13;2.30;;;7.00;95.40;;;;;;5045584;28;20726;-88
2024/01/02 04:36:19;;;;;;;3.23;1.80;;;6.40;99.90;;;;;;5049846;28;20593;-87
2024/01/02 04:38:46;;;;;;;8.40;2.77;;;6.30;1.00;;;;;;5044421;28;20241;-88
2024/01/02 04:41:14;;;;;;;5.50;1.90;;;6.30;1.00;;;;;;5042679;28;20207;-87
2024/01/02 04:43:41;;;;;;;9.10;1.97;;;6.30;1.00;;;;;;5049992;28;20223;-87
2024/01/02 04:46:08;;;;;;;8.13;1.97;;;6.30;1.00;;;;;;5051316;28;20287;-88
2024/01/02 04:48:39;;;;;;;3.93;1.90;;;6.30;1.00;;;;;;5050011;28;20590;-88
2024/01/02 04:51:05;;;;;;;7.57;2.00;;;6.30;15.10;;;;;;5049324;28;20229;-86
2024/01/02 04:53:32;;;;;;;3.53;1.80;;;6.80;73.50;;;;;;5051043;28;20234;-86
2024/01/02 04:55:59;;;;;;;4.17;1.80;;;6.20;99.90;;;;;;5044428;28;20199;-85
2024/01/02 04:58:27;;;;;;;7.60;2.10;;;6.10;99.90;;;;;;5047752;28;20576;-85
2024/01/02 05:00:54;;;;;;;6.43;2.03;;;6.20;99.90;;;;;;5047715;28;20207;-86
2024/01/02 05:03:21;;;;;;;4.37;2.20;;;6.20;99.90;;;;;;5052618;28;20317;-86
2024/01/02 05:05:48;;;;;;;5.37;1.80;;;6.20;99.90;;;;;;5051841;28;20566;-86
2024/01/02 05:08:15;;;;;;;5.67;2.00;;;6.20;99.90;;;;;;5044907;28;20604;-86
2024/01/02 05:10:42;;;;;;;3.70;2.10;;;6.20;99.90;;;;;;5046202;28;20208;-86
2024/01/02 05:13:08;;;;;;;5.60;1.70;;;6.20;99.90;;;;;;5045575;28;20225;-84
2024/01/02 05:15:36;;;;;;;5.63;2.00;;;6.20;99.90;;;;;;5044564;28;20203;-86
2024/01/02 05:18:03;;;;;;;5.13;1.60;;;6.20;99.90;;;;;;5050473;28;20195;-87
2024/01/02 05:20:30;;;;;;;5.27;1.60;;;6.20;99.90;;;;;;5046893;28;20210;-86
2024/01/02 05:23:01;;;;;;;6.27;1.47;;;6.20;99.90;;;;;;5048895;28;20226;-86
2024/01/02 05:25:28;;;;;;;4.77;1.33;;;6.20;99.90;;;;;;5049928;28;20211;-86
2024/01/02 05:27:55;;;;;;;4.47;1.50;;;6.20;99.90;;;;;;5049053;28;20328;-86
2024/01/02 05:30:22;;;;;;;3.13;1.20;;;6.20;99.90;;;;;;5048879;28;20636;-84
2024/01/02 05:32:50;;;;;;;2.37;1.40;;;6.20;99.90;;;;;;5049856;28;20223;-86
2024/01/02 05:35:18;;;;;;;3.57;1.57;;;6.10;99.90;;;;;;5050926;28;20211;-86
2024/01/02 05:37:45;;;;;;;1.83;1.20;;;6.10;99.90;;;;;;5046269;28;20207;-85
2024/01/02 05:40:12;;;;;;;5.47;2.60;;;6.10;99.90;;;;;;5046043;28;20229;-86
2024/01/02 05:42:39;;;;;;;3.17;1.10;;;6.10;99.90;;;;;;5048153;28;20219;-85
2024/01/02 05:45:07;;;;;;;3.87;1.10;;;6.10;99.90;;;;;;5048411;28;20207;-87
2024/01/02 05:47:33;;;;;;;1.77;0.90;;;6.10;99.90;;;;;;5050659;28;20223;-86
2024/01/02 05:50:02;;;;;;;1.77;1.10;;;6.10;99.90;;;;;;5060073;28;20199;-86
2024/01/02 05:52:29;;;;;;;1.33;0.77;;;6.10;99.90;;;;;;5046298;28;20203;-86
2024/01/02 05:54:56;;;;;;;5.07;0.80;;;6.10;99.90;;;;;;5045509;28;20203;-86
2024/01/02 05:57:22;;;;;;;3.73;1.10;;;6.00;99.90;;;;;;5044319;28;20203;-85
2024/01/02 05:59:49;;;;;;;1.70;0.80;;;6.10;99.90;;;;;;5049359;28;20286;-85
2024/01/02 06:02:16;;;;;;;2.90;0.70;;;6.20;99.90;;;;;;5048759;28;20244;-85
2024/01/02 06:04:46;;;;;;;0.90;0.77;;;6.20;99.90;;;;;;5045242;28;20208;-88
2024/01/02 06:07:14;;;;;;;1.63;0.90;;;6.10;99.90;;;;;;5049729;28;20313;-86
2024/01/02 06:09:40;;;;;;;4.30;2.17;;;6.70;99.90;;;;;;5049373;28;20664;-85
2024/01/02 06:12:08;;;;;;;1.47;1.13;;;6.20;99.90;;;;;;5050489;28;20673;-84
2024/01/02 06:14:35;;;;;;;2.00;0.80;;;6.10;99.90;;;;;;5046075;28;20227;-86
2024/01/02 06:17:03;;;;;;;1.50;0.83;;;6.10;99.90;;;;;;5048778;28;20214;-86
2024/01/02 06:19:29;;;;;;;1.80;0.93;;;6.40;99.90;;;;;;5046571;28;20672;-86
2024/01/02 06:21:56;;;;;;;1.07;0.47;;;6.10;99.90;;;;;;5047903;28;20576;-86
2024/01/02 06:24:24;;;;;;;3.57;2.03;;;6.10;99.90;;;;;;5048953;28;20219;-86
2024/01/02 06:26:51;;;;;;;0.90;0.70;;;6.10;99.90;;;;;;5049106;28;20233;-87
2024/01/02 06:29:18;;;;;;;1.50;0.67;;;6.10;99.90;;;;;;5047027;28;20207;-85
2024/01/02 06:31:45;;;;;;;3.70;1.40;;;6.10;99.90;;;;;;5048493;28;20206;-86
2024/01/02 06:34:11;;;;;;;2.40;0.53;;;6.10;99.90;;;;;;5049775;28;20214;-86
2024/01/02 06:36:38;;;;;;;1.00;0.73;;;6.10;99.90;;;;;;5048589;28;20209;-85
2024/01/02 06:39:05;;;;;;;2.27;1.27;;;6.10;99.90;;;;;;5042589;28;20589;-86
2024/01/02 06:41:33;;;;;;;1.03;0.47;;;6.10;99.90;;;;;;5045583;28;20234;-86
2024/01/02 06:44:00;;;;;;;1.40;0.67;;;6.10;32.30;;;;;;5044632;28;20715;-86
2024/01/02 06:46:27;;;;;;;0.77;0.37;;;6.40;1.00;;;;;;5039635;28;20294;-87
2024/01/02 06:48:54;;;;;;;0.40;0.40;;;6.10;1.00;;;;;;5043537;28;20584;-86
2024/01/02 06:51:20;;;;;;;1.73;0.80;;;6.10;1.00;;;;;;5044769;28;20579;-86
2024/01/02 06:53:47;;;;;;;0.80;0.40;;;6.30;15.00;;;;;;5047496;28;20617;-87
2024/01/02 06:56:14;;;;;;;1.50;0.43;;;6.10;61.40;;;;;;5043274;28;20199;-86
2024/01/02 06:58:44;;;;;;;1.60;0.40;;;6.10;39.90;;;;;;5044665;28;20199;-86
2024/01/02 07:01:14;;;;;;;0.30;0.30;;;5.90;45.90;;;;;;5044586;28;20203;-86
2024/01/02 07:03:41;;;;;;;2.03;0.50;;;6.00;99.90;;;;;;5040248;28;20639;-87
2024/01/02 07:06:08;;;;;;;1.23;0.40;;;6.00;99.90;;;;;;5044955;28;20199;-86
2024/01/02 07:08:34;;;;;;;0.97;0.30;;;6.00;99.90;;;;;;5049412;28;20237;-86
2024/01/02 07:11:01;;;;;;;0.73;0.30;;;5.90;99.90;;;;;;5050051;28;20202;-85
2024/01/02 07:13:28;;;;;;;1.33;0.23;;;5.90;1.00;;;;;;5046760;28;20737;-87
2024/01/02 07:15:56;;;;;;;1.83;0.37;;;5.90;40.50;;;;;;5049810;28;20612;-87
2024/01/02 07:18:23;;;;;;;1.30;0.37;;;5.90;99.90;;;;;;5048201;28;20563;-86
2024/01/02 07:20:50;;;;;;;1.30;0.20;;;5.70;99.90;;;;;;5046121;28;20564;-86
2024/01/02 07:23:18;;;;;;;0.40;0.20;;;5.70;99.90;;;;;;5046814;28;20235;-86
2024/01/02 07:25:45;;;;;;;0.23;0.20;;;5.70;90.40;;;;;;5046475;28;20230;-86
2024/01/02 07:28:11;;;;;;;1.70;0.60;;;5.70;1.00;;;;;;5048402;28;20733;-86
2024/01/02 07:30:38;;;;;;;1.17;0.40;;;5.60;99.90;;;;;;5047551;28;20203;-85
2024/01/02 07:33:07;;;;;;;0.70;0.30;;;5.60;99.90;;;;;;5050834;28;20998;-86
2024/01/02 07:35:34;;;;;;;0.60;0.33;;;5.90;99.90;;;;;;5048334;28;20259;-84
2024/01/02 07:38:02;;;;;;;1.23;0.70;;;5.30;99.90;;;;;;5045921;28;20207;-86
2024/01/02 07:40:29;;;;;;;0.17;0.17;;;5.20;99.90;;;;;;5042900;28;20286;-86
2024/01/02 07:42:56;;;;;;;0.83;0.40;;;5.10;99.90;;;;;;5042954;28;20233;-86
2024/01/02 07:45:22;;;;;;;0.73;0.60;;;5.20;99.90;;;;;;5036558;28;20661;-86
2024/01/02 07:47:49;;;;;;;1.87;0.10;;;5.10;99.90;;;;;;5040622;28;20223;-85
2024/01/02 07:50:17;;;;;;;1.80;0.20;;;5.10;99.90;;;;;;5039279;28;20207;-87
2024/01/02 07:52:47;;;;;;;0.10;0.10;;;5.10;99.90;;;;;;5042917;28;20231;-85
2024/01/02 07:55:14;;;;;;;0.33;0.33;;;5.10;99.90;;;;;;5038103;28;20754;-86
2024/01/02 07:57:40;;;;;;;0.10;0.10;;;5.50;99.90;;;;;;5046040;28;20203;-86
2024/01/02 08:00:08;;;;;;;0.20;0.20;;;5.50;99.90;;;;;;5041548;28;20195;-86
2024/01/02 08:02:36;;;;;;;0.73;0.73;;;5.00;99.90;;;;;;5040546;28;20219;-85
2024/01/02 08:05:03;;;;;;;0.60;0.20;;;5.10;99.90;;;;;;5044807;28;20203;-86
2024/01/02 08:07:31;;;;;;;1.03;0.47;;;5.00;99.90;;;;;;5041089;28;20220;-86
2024/01/02 08:09:58;;;;;;;0.77;0.77;;;5.00;99.90;;;;;;5047451;28;20560;-86
2024/01/02 08:12:25;;;;;;;1.37;0.60;;;5.00;99.90;;;;;;5044653;28;20202;-86
2024/01/02 08:14:51;;;;;;;0.20;0.20;;;4.90;99.90;;;;;;5051708;28;20199;-86
2024/01/02 08:17:23;;;;;;;1.27;0.30;;;4.90;99.90;;;;;;5052009;28;20202;-86
2024/01/02 08:19:49;;;;;;;0.33;0.30;;;4.80;99.90;;;;;;5050510;28;20665;-86
2024/01/02 08:22:17;;;;;;;1.07;0.10;;;4.80;99.90;;;;;;5052772;28;20211;-85
2024/01/02 08:24:45;;;;;;;0.70;0.37;;;4.70;99.90;;;;;;5051540;28;20203;-86
2024/01/02 08:27:12;;;;;;;0.80;0.30;;;4.80;99.90;;;;;;5053093;28;20195;-86
2024/01/02 08:29:39;;;;;;;1.53;1.43;;;4.80;99.90;;;;;;5050832;28;20203;-86
2024/01/02 08:32:06;;;;;;;0.87;0.83;;;4.70;99.90;;;;;;5053087;28;20197;-86
2024/01/02 08:34:33;;;;;;;0.43;0.30;;;4.60;99.90;;;;;;5052647;28;20226;-86
2024/01/02 08:37:00;;;;;;;0.90;0.53;;;4.80;99.90;;;;;;5050105;28;20204;-86
2024/01/02 08:39:27;;;;;;;0.50;0.50;;;4.80;99.90;;;;;;5038101;28;20196;-87
2024/01/02 08:41:55;;;;;;;1.13;1.03;;;4.80;99.90;;;;;;5045473;28;20211;-86
2024/01/02 08:44:22;;;;;;;0.97;0.70;;;4.80;99.90;;;;;;5049228;28;20276;-85
2024/01/02 08:46:49;;;;;;;0.50;0.50;;;4.80;99.90;;;;;;5040792;28;20195;-85
2024/01/02 08:49:16;;;;;;;0.80;0.47;;;4.90;99.90;;;;;;5043140;28;20230;-86
2024/01/02 08:51:42;;;;;;;0.27;0.23;;;4.90;99.90;;;;;;5045241;28;20211;-85
2024/01/02 08:54:09;;;;;;;0.30;0.20;;;4.80;99.90;;;;;;5046786;28;20235;-86
2024/01/02 08:56:36;;;;;;;0.20;0.20;;;4.80;99.90;;;;;;5042957;28;20593;-85
2024/01/02 08:59:04;;;;;;;0.20;0.20;;;5.00;99.90;;;;;;5043017;28;20199;-86
2024/01/02 09:01:31;;;;;;;0.30;0.20;;;4.80;99.90;;;;;;5044972;28;20295;-87
2024/01/02 09:03:57;;;;;;;0.27;0.27;;;4.80;99.90;;;;;;5049359;28;20229;-86
2024/01/02 09:06:25;;;;;;;0.37;0.37;;;4.80;99.90;;;;;;5043944;28;20217;-86
2024/01/02 09:08:52;;;;;;;0.10;0.10;;;4.90;99.90;;;;;;5049073;28;20215;-86
2024/01/02 09:11:20;;;;;;;0.33;0.23;;;5.00;99.90;;;;;;5045757;28;20211;-86
2024/01/02 09:13:47;;;;;;;0.60;0.60;;;4.90;99.90;;;;;;5046540;28;20219;-87
2024/01/02 09:16:15;;;;;;;0.37;0.30;;;4.90;99.90;;;;;;5047125;28;20203;-85
2024/01/02 09:18:42;;;;;;;0.20;0.20;;;4.90;99.90;;;;;;5047230;28;20199;-87
2024/01/02 09:21:09;;;;;;;0.50;0.30;;;5.00;99.90;;;;;;5050901;28;20653;-87
2024/01/02 09:23:35;;;;;;;0.30;0.30;;;5.40;99.90;;;;;;5043783;28;20242;-86
2024/01/02 09:26:06;;;;;;;0.47;0.40;;;5.00;99.90;;;;;;5051512;28;20213;-86
2024/01/02 09:28:35;;;;;;;0.10;0.10;;;5.10;99.90;;;;;;5049393;28;20223;-86
2024/01/02 09:31:03;;;;;;;0.30;0.30;;;5.10;99.90;;;;;;5046478;28;20195;-86
2024/01/02 09:33:31;;;;;;;0.40;0.40;;;5.10;99.90;;;;;;5050859;28;20230;-84
2024/01/02 09:35:58;;;;;;;0.20;0.20;;;5.10;99.90;;;;;;5051604;28;20203;-86
2024/01/02 09:38:25;;;;;;;0.33;0.33;;;5.20;99.90;;;;;;5046088;28;20230;-86
2024/01/02 09:41:28;;;;;;;0.30;0.10;;;5.30;99.90;;;;;;5037761;28;20721;-86
2024/01/02 09:44:07;;;;;;;0.40;0.40;;;5.30;99.90;;;;;;5043825;28;20827;-87
2024/01/02 09:46:40;;;;;;;0.60;0.60;;;5.30;99.90;;;;;;5042840;28;20211;-86
2024/01/02 09:49:26;;;;;;;0.47;0.33;;;5.40;99.90;;;;;;5038051;28;20223;-86
2024/01/02 09:52:22;;;;;;;0.20;0.20;;;5.40;99.90;;;;;;5040691;28;20199;-86
2024/01/02 09:54:57;;;;;;;0.80;0.40;;;5.50;99.90;;;;;;5040707;28;20207;-86
2024/01/02 09:57:29;;;;;;;0.30;0.30;;;5.50;99.90;;;;;;5039766;28;20199;-86
2024/01/02 10:00:05;;;;;;;0.20;0.20;;;6.40;99.90;;;;;;5046419;28;20333;-85
2024/01/02 10:02:55;;;;;;;0.50;0.30;;;5.60;99.90;;;;;;5044895;28;20210;-85
2024/01/02 10:05:37;;;;;;;0.10;0.10;;;5.60;99.90;;;;;;5036859;28;20213;-86
2024/01/02 10:08:17;;;;;;;0.10;0.10;;;5.60;99.90;;;;;;5043802;28;20245;-85
2024/01/02 10:10:57;;;;;;;0.30;0.30;;;5.60;99.90;;;;;;5048174;28;20226;-86
2024/01/02 10:13:25;;;;;;;0.50;0.30;;;6.00;99.90;;;;;;5047868;28;20284;-86
2024/01/02 10:16:09;;;;;;;0.20;0.20;;;5.70;99.90;;;;;;5048992;28;20199;-86
2024/01/02 10:18:51;;;;;;;0.53;0.50;;;5.80;99.90;;;;;;5048533;28;20198;-86
2024/01/02 10:21:29;;;;;;;0.57;0.10;;;5.80;99.90;;;;;;5048372;28;20554;-85
2024/01/02 10:24:09;;;;;;;0.70;0.70;;;5.90;99.90;;;;;;5051195;28;20230;-86
2024/01/02 10:26:40;;;;;;;0.50;0.50;;;5.90;99.90;;;;;;5048523;28;20276;-86
2024/01/02 10:29:13;;;;;;;1.40;1.10;;;5.90;99.90;;;;;;5051505;28;20222;-86
2024/01/02 10:31:57;;;;;;;0.60;0.50;;;6.00;99.90;;;;;;5049922;28;20203;-86
2024/01/02 10:34:33;;;;;;;1.27;0.60;;;6.00;99.90;;;;;;5050513;28;20707;-85
2024/01/02 10:37:06;;;;;;;0.80;0.50;;;6.10;99.90;;;;;;5050352;28;20230;-86
2024/01/02 10:39:39;;;;;;;0.50;0.40;;;6.10;99.90;;;;;;5037911;28;20199;-85
2024/01/02 10:42:26;;;;;;;0.20;0.20;;;6.20;99.90;;;;;;5038238;28;20203;-86
2024/01/02 10:45:06;;;;;;;0.50;0.20;;;6.40;99.90;;;;;;5037045;28;20897;-86
2024/01/02 10:47:56;;;;;;;0.30;0.30;;;6.70;99.90;;;;;;5035751;28;20207;-86
2024/01/02 10:50:33;;;;;;;0.10;0.10;;;6.60;99.90;;;;;;5041875;28;20195;-86
2024/01/02 10:53:17;;;;;;;0.33;0.20;;;6.80;99.90;;;;;;5048564;28;20227;-86
2024/01/02 10:55:49;;;;;;;0.50;0.20;;;6.80;99.90;;;;;;5045336;28;20606;-86
2024/01/02 10:58:21;;;;;;;0.20;0.10;;;7.20;99.90;;;;;;5040712;28;20665;-86
2024/01/02 11:00:58;;;;;;;0.30;0.10;;;6.90;99.90;;;;;;5046610;28;20204;-86
2024/01/02 11:03:28;;;;;;;0.00;0.00;;;7.00;99.90;;;;;;5044433;28;20229;-86
2024/01/02 11:06:01;;;;;;;0.10;0.10;;;7.00;99.90;;;;;;5046299;28;20211;-86
2024/01/02 11:08:33;;;;;;;0.20;0.20;;;7.00;99.90;;;;;;5044121;28;20227;-86
2024/01/02 11:11:04;;;;;;;0.10;0.10;;;7.00;99.90;;;;;;5047471;28;20198;-86
2024/01/02 11:13:34;;;;;;;0.40;0.30;;;7.30;99.90;;;;;;5047330;28;20234;-85
2024/01/02 11:16:05;;;;;;;0.10;0.10;;;7.80;99.90;;;;;;5044746;28;20257;-85
2024/01/02 11:18:35;;;;;;;1.47;0.20;;;7.20;99.90;;;;;;5043163;28;20288;-85
2024/01/02 11:21:06;;;;;;;1.40;0.33;;;7.20;99.90;;;;;;5044426;28;20195;-86
2024/01/02 11:23:41;;;;;;;0.40;0.40;;;7.20;99.90;;;;;;5047231;28;20227;-85
2024/01/02 11:26:13;;;;;;;1.03;0.60;;;7.20;99.90;;;;;;5044666;28;20202;-86
2024/01/02 11:28:42;;;;;;;1.00;0.73;;;7.40;99.90;;;;;;5048710;28;20297;-85
2024/01/02 11:31:09;;;;;;;0.90;0.70;;;7.40;99.90;;;;;;5050496;28;20203;-86
2024/01/02 11:33:44;;;;;;;1.33;0.90;;;7.20;99.90;;;;;;5049024;28;20238;-86
2024/01/02 11:36:24;;;;;;;1.43;1.03;;;7.20;99.90;;;;;;5050193;28;20191;-85
2024/01/02 11:39:04;;;;;;;1.67;1.57;;;7.10;99.90;;;;;;5042522;28;20207;-86
2024/01/02 11:41:43;;;;;;;0.87;0.80;;;7.20;99.90;;;;;;5042913;28;20215;-85
2024/01/02 11:44:25;;;;;;;0.40;0.40;;;7.20;99.90;;;;;;5040396;28;20245;-86
2024/01/02 11:47:04;;;;;;;1.27;0.50;;;7.20;99.90;;;;;;5040169;28;20210;-86
2024/01/02 11:49:33;;;;;;;0.40;0.40;;;7.20;99.90;;;;;;5039419;28;20229;-86
2024/01/02 11:52:11;;;;;;;0.67;0.67;;;7.50;99.90;;;;;;5041543;28;20265;-86
2024/01/02 11:54:47;;;;;;;0.50;0.50;;;7.20;99.90;;;;;;5052552;28;20230;-85
2024/01/02 11:57:24;;;;;;;0.60;0.60;;;7.10;99.90;;;;;;5044767;28;20213;-87
2024/01/02 11:59:57;;;;;;;1.73;0.73;;;7.10;99.90;;;;;;5047236;28;20202;-85
2024/01/02 12:02:38;;;;;;;0.70;0.70;;;7.10;99.90;;;;;;5048984;28;20206;-86
2024/01/02 12:05:11;;;;;;;1.00;0.70;;;7.10;99.90;;;;;;5043906;28;20479;-86
2024/01/02 12:07:41;;;;;;;0.83;0.70;;;7.10;99.90;;;;;;5041837;28;20200;-86
2024/01/02 12:10:09;;;;;;;0.97;0.97;;;7.10;99.90;;;;;;5048642;28;20329;-86
2024/01/02 12:12:54;;;;;;;0.80;0.80;;;7.00;99.90;;;;;;5050367;28;20223;-85
2024/01/02 12:15:29;;;;;;;1.33;1.17;;;7.00;99.90;;;;;;5044653;28;20249;-86
2024/01/02 12:17:59;;;;;;;1.30;1.20;;;7.10;99.90;;;;;;5050235;28;20713;-86
2024/01/02 12:20:28;;;;;;;2.20;1.00;;;7.10;99.90;;;;;;5044720;28;20208;-86
2024/01/02 12:22:56;;;;;;;1.87;1.30;;;7.10;99.90;;;;;;5046854;28;20231;-86
2024/01/02 12:25:25;;;;;;;0.90;0.90;;;7.10;99.90;;;;;;5052563;28;20333;-86
2024/01/02 12:27:54;;;;;;;0.87;0.80;;;7.10;99.90;;;;;;5050936;28;20456;-86
2024/01/02 12:30:25;;;;;;;1.80;0.90;;;7.10;99.90;;;;;;5046121;28;20306;-85
2024/01/02 12:33:05;;;;;;;1.50;1.17;;;7.10;99.90;;;;;;5051866;28;20231;-86
2024/01/02 12:35:35;;;;;;;1.90;1.70;;;7.10;99.90;;;;;;5053015;28;20219;-84
2024/01/02 12:38:11;;;;;;;1.70;1.50;;;7.30;99.90;;;;;;5043862;28;20196;-85
2024/01/02 12:40:44;;;;;;;1.90;1.40;;;7.20;99.90;;;;;;5037170;28;20690;-84
2024/01/02 12:43:13;;;;;;;1.87;1.40;;;7.30;99.90;;;;;;5042241;28;20219;-86
2024/01/02 12:45:46;;;;;;;2.27;1.93;;;7.60;99.90;;;;;;5036946;28;20207;-85
2024/01/02 12:48:18;;;;;;;1.90;1.70;;;7.30;99.90;;;;;;5037166;28;20215;-86
2024/01/02 12:50:49;;;;;;;1.70;1.60;;;7.70;99.90;;;;;;5048922;28;20596;-85
2024/01/02 12:53:17;;;;;;;2.20;1.50;;;7.40;99.90;;;;;;5043208;28;20297;-86
2024/01/02 12:55:51;;;;;;;2.20;1.60;;;7.70;99.90;;;;;;5044173;28;20211;-85
2024/01/02 12:58:18;;;;;;;2.87;1.80;;;7.50;99.90;;;;;;5046215;28;20253;-86
2024/01/02 13:00:46;;;;;;;2.77;1.90;;;7.80;99.90;;;;;;5046751;28;20727;-86
2024/01/02 13:03:15;;;;;;;2.90;1.90;;;7.60;99.90;;;;;;5045572;28;20234;-86
2024/01/02 13:05:43;;;;;;;2.17;1.97;;;7.70;99.90;;;;;;5042492;28;20210;-86
2024/01/02 13:08:16;;;;;;;2.50;1.93;;;7.70;99.90;;;;;;5037499;28;20602;-86